Time;durP1;ratioP1;P1;durP2;ratioP2;P2;SDS_P1;SDS_P2;PMS_P1;PMS_P2;Temp;Humidity;BMP_temperature;BMP_pressure;BME280_temperature;BME280_humidity;BME280_pressure;Samples;Min_cycle;Max_cycle;Signal;HPM_P1;HPM_P2
2021/09/17 00:01:36;;;;;;;1.75;1.63;;;20.80;77.20;;;;;;5096109;28;20369;-53
2021/09/17 00:04:02;;;;;;;1.63;1.52;;;20.80;77.20;;;;;;5095903;28;20220;-55
2021/09/17 00:06:27;;;;;;;2.35;1.60;;;20.80;77.10;;;;;;5095886;28;20038;-46
2021/09/17 00:08:53;;;;;;;2.30;1.80;;;20.80;77.20;;;;;;5095954;28;20046;-53
2021/09/17 00:11:19;;;;;;;1.90;1.80;;;20.80;77.20;;;;;;5095422;28;20056;-52
2021/09/17 00:13:46;;;;;;;1.75;1.45;;;20.80;77.10;;;;;;5095908;28;20048;-54
2021/09/17 00:16:12;;;;;;;1.63;1.52;;;20.80;77.10;;;;;;5095656;28;20036;-54
2021/09/17 00:18:38;;;;;;;1.70;1.50;;;20.80;77.10;;;;;;5095614;28;20375;-54
2021/09/17 00:21:03;;;;;;;2.10;1.90;;;20.80;77.10;;;;;;5095402;28;20040;-54
2021/09/17 00:23:29;;;;;;;1.73;1.58;;;20.80;77.20;;;;;;5095643;28;20363;-53
2021/09/17 00:25:55;;;;;;;1.90;1.65;;;20.80;77.10;;;;;;5095333;28;20492;-51
2021/09/17 00:28:21;;;;;;;1.80;1.35;;;20.80;77.40;;;;;;5095642;28;20123;-53
2021/09/17 00:30:47;;;;;;;1.90;1.63;;;20.80;77.20;;;;;;5095558;28;20032;-52
2021/09/17 00:33:13;;;;;;;2.00;1.63;;;20.80;77.10;;;;;;5095686;28;20070;-54
2021/09/17 00:35:38;;;;;;;1.55;1.45;;;20.80;77.10;;;;;;5095263;28;20617;-51
2021/09/17 00:38:04;;;;;;;2.13;1.70;;;20.80;77.10;;;;;;5095465;28;20357;-54
2021/09/17 00:40:32;;;;;;;1.60;1.50;;;20.80;77.10;;;;;;5095251;28;20044;-54
2021/09/17 00:42:57;;;;;;;1.90;1.60;;;20.80;77.10;;;;;;5095409;28;20043;-54
2021/09/17 00:45:23;;;;;;;2.00;1.70;;;20.80;77.10;;;;;;5095466;28;20400;-54
2021/09/17 00:47:49;;;;;;;1.80;1.65;;;20.80;77.10;;;;;;5094060;28;20120;-54
2021/09/17 00:50:21;;;;;;;1.52;1.42;;;20.80;77.10;;;;;;5095452;28;20451;-54
2021/09/17 00:52:48;;;;;;;1.52;1.40;;;20.80;77.10;;;;;;5094953;28;20043;-54
2021/09/17 00:55:14;;;;;;;1.50;1.40;;;20.80;77.10;;;;;;5094506;28;20132;-54
2021/09/17 00:57:40;;;;;;;1.60;1.50;;;20.80;77.10;;;;;;5095405;28;20054;-53
2021/09/17 01:00:10;;;;;;;2.30;1.73;;;20.80;77.10;;;;;;5095374;28;20388;-53
2021/09/17 01:02:35;;;;;;;1.60;1.50;;;20.80;77.10;;;;;;5094995;28;20487;-54
2021/09/17 01:05:03;;;;;;;1.67;1.50;;;20.80;77.10;;;;;;5095219;28;20040;-54
2021/09/17 01:07:29;;;;;;;1.55;1.45;;;20.80;77.10;;;;;;5094272;28;20047;-53
2021/09/17 01:09:56;;;;;;;2.47;1.65;;;20.80;77.10;;;;;;5094741;28;20424;-51
2021/09/17 01:12:22;;;;;;;1.90;1.70;;;20.80;77.10;;;;;;5094818;28;20063;-54
2021/09/17 01:14:48;;;;;;;1.45;1.35;;;20.80;77.10;;;;;;5095029;28;20036;-53
2021/09/17 01:17:13;;;;;;;1.60;1.50;;;20.80;77.10;;;;;;5094897;28;20796;-54
2021/09/17 01:19:39;;;;;;;1.65;1.55;;;20.80;77.10;;;;;;5094487;28;20040;-53
2021/09/17 01:22:07;;;;;;;2.17;1.67;;;20.80;77.10;;;;;;5094837;28;20222;-53
2021/09/17 01:24:35;;;;;;;1.80;1.70;;;20.80;77.10;;;;;;5093877;28;20078;-51
2021/09/17 01:27:01;;;;;;;1.60;1.50;;;20.80;77.10;;;;;;5094037;28;20766;-53
2021/09/17 01:29:27;;;;;;;1.73;1.60;;;20.80;77.10;;;;;;5094598;28;20048;-53
2021/09/17 01:31:53;;;;;;;1.80;1.70;;;20.80;77.10;;;;;;5094296;28;20122;-53
2021/09/17 01:34:21;;;;;;;2.72;1.95;;;20.80;77.10;;;;;;5094516;28;20044;-51
2021/09/17 01:36:49;;;;;;;2.08;1.58;;;20.80;77.10;;;;;;5094196;28;20046;-53
2021/09/17 01:39:17;;;;;;;1.95;1.83;;;20.80;77.10;;;;;;5093558;28;20567;-53
2021/09/17 01:41:43;;;;;;;1.70;1.60;;;20.80;77.10;;;;;;5094195;28;20036;-54
2021/09/17 01:44:10;;;;;;;1.58;1.45;;;20.80;77.10;;;;;;5094267;28;20059;-54
2021/09/17 01:46:36;;;;;;;2.05;1.85;;;20.70;77.00;;;;;;5093929;28;20476;-55
2021/09/17 01:49:02;;;;;;;1.60;1.50;;;20.80;77.10;;;;;;5094189;28;20089;-54
2021/09/17 01:51:28;;;;;;;2.08;1.80;;;20.70;77.00;;;;;;5094045;28;20044;-52
2021/09/17 01:53:54;;;;;;;1.83;1.63;;;20.80;77.10;;;;;;5091634;28;20065;-54
2021/09/17 01:56:21;;;;;;;1.88;1.70;;;20.70;77.00;;;;;;5093160;28;20036;-54
2021/09/17 01:58:47;;;;;;;2.10;1.52;;;20.80;77.10;;;;;;5093930;28;20086;-52
2021/09/17 02:01:13;;;;;;;1.40;1.30;;;20.80;77.00;;;;;;5093913;28;20164;-54
2021/09/17 02:03:39;;;;;;;1.75;1.65;;;20.80;77.00;;;;;;5093911;28;20115;-53
2021/09/17 02:06:05;;;;;;;2.10;1.70;;;20.70;77.00;;;;;;5093838;28;20066;-54
2021/09/17 02:08:31;;;;;;;1.35;1.25;;;20.80;77.00;;;;;;5093696;28;20349;-53
2021/09/17 02:10:58;;;;;;;1.60;1.50;;;20.80;77.10;;;;;;5092723;28;20553;-53
2021/09/17 02:13:24;;;;;;;1.50;1.40;;;20.80;77.00;;;;;;5093579;28;20100;-53
2021/09/17 02:15:51;;;;;;;2.13;1.92;;;20.70;77.00;;;;;;5093430;28;20127;-54
2021/09/17 02:18:19;;;;;;;1.52;1.42;;;20.80;77.00;;;;;;5093642;28;20488;-54
2021/09/17 02:20:46;;;;;;;1.63;1.52;;;20.70;77.00;;;;;;5093594;28;20031;-54
2021/09/17 02:23:12;;;;;;;2.00;1.80;;;20.70;77.00;;;;;;5093038;28;20086;-53
2021/09/17 02:25:39;;;;;;;2.20;2.00;;;20.80;77.00;;;;;;5093400;28;20067;-49
2021/09/17 02:28:04;;;;;;;1.98;1.60;;;20.70;77.00;;;;;;5092799;28;20518;-53
2021/09/17 02:30:31;;;;;;;2.30;2.10;;;20.70;77.00;;;;;;5093272;28;20040;-51
2021/09/17 02:32:57;;;;;;;2.00;1.80;;;20.70;77.00;;;;;;5093132;28;20194;-52
2021/09/17 02:35:22;;;;;;;2.20;1.88;;;20.70;77.00;;;;;;5093231;28;20093;-54
2021/09/17 02:37:48;;;;;;;2.30;1.88;;;20.70;77.00;;;;;;5093317;28;20040;-49
2021/09/17 02:40:15;;;;;;;1.90;1.70;;;20.70;77.00;;;;;;5093380;28;20047;-53
2021/09/17 02:42:42;;;;;;;2.45;1.88;;;20.70;77.00;;;;;;5092855;28;20365;-53
2021/09/17 02:45:10;;;;;;;1.60;1.48;;;20.70;76.90;;;;;;5093342;28;20090;-53
2021/09/17 02:47:36;;;;;;;2.40;1.63;;;20.70;77.00;;;;;;5093483;28;20055;-52
2021/09/17 02:50:03;;;;;;;1.98;1.77;;;20.70;76.90;;;;;;5093105;28;20032;-53
2021/09/17 02:52:29;;;;;;;1.88;1.70;;;20.70;76.90;;;;;;5093163;28;20052;-54
2021/09/17 02:54:54;;;;;;;1.40;1.30;;;20.70;77.00;;;;;;5093039;28;20044;-55
2021/09/17 02:57:20;;;;;;;2.25;1.73;;;20.80;77.00;;;;;;5092730;28;20040;-53
2021/09/17 02:59:46;;;;;;;1.70;1.50;;;20.70;77.00;;;;;;5092551;28;20036;-53
2021/09/17 03:02:13;;;;;;;2.00;1.80;;;20.70;77.00;;;;;;5092788;28;20040;-52
2021/09/17 03:04:38;;;;;;;1.70;1.60;;;20.70;77.00;;;;;;5093224;28;20059;-47
2021/09/17 03:07:05;;;;;;;2.50;1.88;;;20.70;77.00;;;;;;5093069;28;20048;-54
2021/09/17 03:09:30;;;;;;;2.20;2.00;;;20.70;77.00;;;;;;5092836;28;20048;-54
2021/09/17 03:11:56;;;;;;;1.77;1.67;;;20.70;76.90;;;;;;5090942;28;20530;-53
2021/09/17 03:14:22;;;;;;;2.00;1.70;;;20.70;77.00;;;;;;5092368;28;20042;-53
2021/09/17 03:16:49;;;;;;;1.70;1.60;;;20.70;76.90;;;;;;5092813;28;20054;-53
2021/09/17 03:19:16;;;;;;;2.08;1.75;;;20.70;77.00;;;;;;5092382;28;20040;-54
2021/09/17 03:21:42;;;;;;;2.17;1.65;;;20.70;76.90;;;;;;5091475;28;20085;-53
2021/09/17 03:24:09;;;;;;;2.75;1.90;;;20.70;77.00;;;;;;5092748;28;20075;-54
2021/09/17 03:26:35;;;;;;;2.10;1.90;;;20.70;77.00;;;;;;5092212;28;20421;-54
2021/09/17 03:29:00;;;;;;;2.22;1.70;;;20.70;77.00;;;;;;5092489;28;20048;-54
2021/09/17 03:31:27;;;;;;;2.20;1.63;;;20.70;77.00;;;;;;5091939;28;20044;-54
2021/09/17 03:33:53;;;;;;;1.50;1.40;;;20.70;77.00;;;;;;5092132;28;20147;-51
2021/09/17 03:36:19;;;;;;;1.77;1.67;;;20.70;77.00;;;;;;5092189;28;20087;-55
2021/09/17 03:38:44;;;;;;;1.88;1.60;;;20.70;76.90;;;;;;5092433;28;20047;-52
2021/09/17 03:41:10;;;;;;;2.20;1.92;;;20.70;76.90;;;;;;5092495;28;20044;-47
2021/09/17 03:43:36;;;;;;;1.63;1.52;;;20.70;77.00;;;;;;5092139;28;20438;-54
2021/09/17 03:46:02;;;;;;;2.15;1.75;;;20.70;77.00;;;;;;5092035;28;20388;-53
2021/09/17 03:48:28;;;;;;;1.50;1.40;;;20.70;77.00;;;;;;5092371;28;20047;-54
2021/09/17 03:50:54;;;;;;;1.77;1.60;;;20.70;76.90;;;;;;5092549;28;20040;-54
2021/09/17 03:53:20;;;;;;;2.13;1.88;;;20.70;77.00;;;;;;5092116;28;20131;-48
2021/09/17 03:55:46;;;;;;;1.70;1.60;;;20.70;76.90;;;;;;5092062;28;20039;-54
2021/09/17 03:58:12;;;;;;;1.90;1.70;;;20.70;76.90;;;;;;5091819;28;20040;-52
2021/09/17 04:00:38;;;;;;;1.80;1.70;;;20.70;77.60;;;;;;5092055;28;20403;-53
2021/09/17 04:03:04;;;;;;;1.55;1.45;;;20.70;76.90;;;;;;5089940;28;20385;-52
2021/09/17 04:05:31;;;;;;;1.80;1.52;;;20.70;76.90;;;;;;5091989;28;20044;-53
2021/09/17 04:07:57;;;;;;;2.05;1.80;;;20.70;76.90;;;;;;5092225;28;20051;-52
2021/09/17 04:10:23;;;;;;;1.63;1.52;;;20.70;77.00;;;;;;5091733;28;20454;-52
2021/09/17 04:12:49;;;;;;;1.98;1.67;;;20.70;76.90;;;;;;5091915;28;20048;-53
2021/09/17 04:15:15;;;;;;;2.35;1.88;;;20.70;77.00;;;;;;5091543;28;20093;-52
2021/09/17 04:17:42;;;;;;;1.90;1.70;;;20.70;76.90;;;;;;5091641;28;20105;-48
2021/09/17 04:20:09;;;;;;;1.92;1.73;;;20.70;77.00;;;;;;5091864;28;20051;-54
2021/09/17 04:22:35;;;;;;;2.17;1.90;;;20.70;77.00;;;;;;5091858;28;20040;-55
2021/09/17 04:25:00;;;;;;;1.70;1.60;;;20.70;77.00;;;;;;5091849;28;20507;-53
2021/09/17 04:27:26;;;;;;;1.52;1.42;;;20.70;77.00;;;;;;5092054;28;20032;-53
2021/09/17 04:29:53;;;;;;;1.88;1.75;;;20.70;77.00;;;;;;5092337;28;20430;-54
2021/09/17 04:32:20;;;;;;;2.05;1.77;;;20.70;76.90;;;;;;5095531;28;20066;-53
2021/09/17 04:34:46;;;;;;;2.28;2.08;;;20.70;77.00;;;;;;5095174;28;20112;-50
2021/09/17 04:37:11;;;;;;;2.00;1.70;;;20.70;77.00;;;;;;5095374;28;20403;-54
2021/09/17 04:39:37;;;;;;;2.28;1.80;;;20.70;77.00;;;;;;5095387;28;20104;-52
2021/09/17 04:42:03;;;;;;;1.58;1.48;;;20.70;77.00;;;;;;5095479;28;20040;-47
2021/09/17 04:44:29;;;;;;;1.80;1.70;;;20.70;77.00;;;;;;5095068;28;20048;-54
2021/09/17 04:46:55;;;;;;;2.10;1.70;;;20.70;77.00;;;;;;5095311;28;20123;-54
2021/09/17 04:49:22;;;;;;;1.95;1.77;;;20.70;77.00;;;;;;5094782;28;20036;-54
2021/09/17 04:51:48;;;;;;;2.53;2.03;;;20.70;77.00;;;;;;5095289;28;20048;-54
2021/09/17 04:54:13;;;;;;;2.67;2.00;;;20.70;77.00;;;;;;5095294;28;20131;-53
2021/09/17 04:56:40;;;;;;;1.92;1.75;;;20.70;77.00;;;;;;5094913;28;20127;-52
2021/09/17 04:59:06;;;;;;;2.00;1.80;;;20.70;77.00;;;;;;5094810;28;20044;-53
2021/09/17 05:01:32;;;;;;;1.58;1.40;;;20.70;77.00;;;;;;5094748;28;20089;-48
2021/09/17 05:03:58;;;;;;;1.85;1.65;;;20.70;77.00;;;;;;5094717;28;20032;-52
2021/09/17 05:06:24;;;;;;;2.20;2.00;;;20.70;77.00;;;;;;5094396;28;20044;-50
2021/09/17 05:08:50;;;;;;;2.70;2.13;;;20.70;77.00;;;;;;5094437;28;20040;-52
2021/09/17 05:11:16;;;;;;;1.90;1.70;;;20.70;77.00;;;;;;5093898;28;20059;-53
2021/09/17 05:13:42;;;;;;;1.88;1.60;;;20.70;77.00;;;;;;5094134;28;20056;-52
2021/09/17 05:16:08;;;;;;;1.90;1.67;;;20.70;77.00;;;;;;5094525;28;20137;-54
2021/09/17 05:18:33;;;;;;;2.65;2.00;;;20.60;76.90;;;;;;5094435;28;20044;-51
2021/09/17 05:20:59;;;;;;;1.85;1.70;;;20.70;77.00;;;;;;5093594;28;20047;-51
2021/09/17 05:23:25;;;;;;;1.67;1.58;;;20.60;77.00;;;;;;5093693;28;20256;-51
2021/09/17 05:25:51;;;;;;;1.60;1.40;;;20.70;77.00;;;;;;5094463;28;20056;-53
2021/09/17 05:28:17;;;;;;;1.27;1.17;;;20.60;77.00;;;;;;5094469;28;20431;-54
2021/09/17 05:30:42;;;;;;;1.55;1.42;;;20.70;77.00;;;;;;5094319;28;20032;-54
2021/09/17 05:33:08;;;;;;;1.70;1.60;;;20.60;77.00;;;;;;5094693;28;20070;-52
2021/09/17 05:35:34;;;;;;;1.77;1.60;;;20.70;77.00;;;;;;5094277;28;20043;-51
2021/09/17 05:38:00;;;;;;;2.05;1.60;;;20.70;77.00;;;;;;5093893;28;20043;-49
2021/09/17 05:40:26;;;;;;;2.20;1.90;;;20.60;77.00;;;;;;5093733;28;20044;-47
2021/09/17 05:42:52;;;;;;;1.63;1.52;;;20.70;77.00;;;;;;5094338;28;20115;-54
2021/09/17 05:45:18;;;;;;;1.60;1.50;;;20.60;76.90;;;;;;5093758;28;20032;-50
2021/09/17 05:47:44;;;;;;;1.80;1.65;;;20.70;77.00;;;;;;5094099;28;20046;-53
2021/09/17 05:50:12;;;;;;;1.83;1.60;;;20.60;76.90;;;;;;5093887;28;20036;-48
2021/09/17 05:52:38;;;;;;;2.05;1.77;;;20.60;76.90;;;;;;5093404;28;20048;-50
2021/09/17 05:55:06;;;;;;;2.00;1.80;;;20.60;76.90;;;;;;5094050;28;20354;-47
2021/09/17 05:57:32;;;;;;;2.03;1.83;;;20.60;76.90;;;;;;5093857;28;20408;-50
2021/09/17 05:59:58;;;;;;;1.75;1.60;;;20.60;76.90;;;;;;5093700;28;20044;-53
2021/09/17 06:02:24;;;;;;;2.00;1.63;;;20.60;76.90;;;;;;5093778;28;20040;-53
2021/09/17 06:04:49;;;;;;;1.63;1.50;;;20.60;76.90;;;;;;5093843;28;20538;-49
2021/09/17 06:07:15;;;;;;;1.75;1.60;;;20.60;76.90;;;;;;5093340;28;20066;-53
2021/09/17 06:09:41;;;;;;;2.15;1.95;;;20.60;76.90;;;;;;5093525;28;20067;-47
2021/09/17 06:12:07;;;;;;;2.00;1.65;;;20.60;76.90;;;;;;5093270;28;20055;-53
2021/09/17 06:14:33;;;;;;;1.70;1.60;;;20.60;76.90;;;;;;5093503;28;20079;-53
2021/09/17 06:16:59;;;;;;;1.75;1.65;;;20.60;76.90;;;;;;5093533;28;20048;-50
2021/09/17 06:19:26;;;;;;;1.83;1.70;;;20.60;76.90;;;;;;5093664;28;20036;-49
2021/09/17 06:21:51;;;;;;;2.13;1.92;;;20.60;76.90;;;;;;5093151;28;20046;-54
2021/09/17 06:24:17;;;;;;;1.40;1.30;;;20.60;76.90;;;;;;5093152;28;20123;-52
2021/09/17 06:26:43;;;;;;;1.88;1.73;;;20.60;76.90;;;;;;5093202;28;20146;-53
2021/09/17 06:29:09;;;;;;;1.40;1.30;;;20.60;76.90;;;;;;5093029;28;20139;-54
2021/09/17 06:31:36;;;;;;;2.00;1.80;;;20.60;76.90;;;;;;5093122;28;20050;-53
2021/09/17 06:34:03;;;;;;;1.63;1.52;;;20.60;76.90;;;;;;5093163;28;20119;-54
2021/09/17 06:36:29;;;;;;;1.75;1.50;;;20.60;76.90;;;;;;5093008;28;20087;-54
2021/09/17 06:38:55;;;;;;;2.13;1.90;;;20.60;76.90;;;;;;5093022;28;20067;-54
2021/09/17 06:41:21;;;;;;;1.75;1.60;;;20.60;76.90;;;;;;5092932;28;20068;-55
2021/09/17 06:43:48;;;;;;;2.00;1.42;;;20.60;76.90;;;;;;5093162;28;20044;-47
2021/09/17 06:46:14;;;;;;;1.42;1.33;;;20.60;76.90;;;;;;5092869;28;20036;-53
2021/09/17 06:48:40;;;;;;;1.60;1.35;;;20.60;76.90;;;;;;5093000;28;20036;-51
2021/09/17 06:51:06;;;;;;;1.88;1.70;;;20.60;76.90;;;;;;5092932;28;20082;-45
2021/09/17 06:53:32;;;;;;;1.63;1.52;;;20.60;76.90;;;;;;5091005;28;20075;-51
2021/09/17 06:55:58;;;;;;;1.67;1.50;;;20.60;76.90;;;;;;5092361;28;20042;-48
2021/09/17 06:58:29;;;;;;;1.60;1.50;;;20.60;76.90;;;;;;5092863;28;20048;-49
2021/09/17 07:00:55;;;;;;;1.55;1.42;;;20.60;76.90;;;;;;5093133;28;20048;-54
2021/09/17 07:03:21;;;;;;;1.80;1.40;;;20.60;76.90;;;;;;5092448;28;20044;-47
2021/09/17 07:05:47;;;;;;;1.42;1.33;;;20.60;76.90;;;;;;5092928;28;20044;-47
2021/09/17 07:08:13;;;;;;;1.52;1.40;;;20.60;76.90;;;;;;5092875;28;20582;-44
2021/09/17 07:10:39;;;;;;;1.58;1.48;;;20.60;76.90;;;;;;5092244;28;20059;-53
2021/09/17 07:13:07;;;;;;;2.17;1.98;;;20.60;76.90;;;;;;5092336;28;20044;-48
2021/09/17 07:15:34;;;;;;;1.60;1.50;;;20.60;76.90;;;;;;5092451;28;20398;-46
2021/09/17 07:18:04;;;;;;;1.83;1.58;;;20.60;76.90;;;;;;5092452;28;20439;-48
2021/09/17 07:20:31;;;;;;;1.88;1.60;;;20.60;76.90;;;;;;5092643;28;20040;-48
2021/09/17 07:22:57;;;;;;;1.23;1.13;;;20.60;76.90;;;;;;5092663;28;20044;-51
2021/09/17 07:25:23;;;;;;;1.33;1.23;;;20.60;77.00;;;;;;5092757;28;20036;-45
2021/09/17 07:27:49;;;;;;;1.90;1.50;;;20.60;76.90;;;;;;5092678;28;20381;-53
2021/09/17 07:30:16;;;;;;;1.38;1.27;;;20.60;77.00;;;;;;5092191;28;20036;-49
2021/09/17 07:32:42;;;;;;;1.70;1.60;;;20.60;76.90;;;;;;5091714;28;20089;-46
2021/09/17 07:35:09;;;;;;;1.38;1.27;;;20.60;77.00;;;;;;5092230;28;20110;-49
2021/09/17 07:37:35;;;;;;;1.50;1.20;;;20.60;76.90;;;;;;5092109;28;20059;-48
2021/09/17 07:40:02;;;;;;;1.70;1.60;;;20.60;76.90;;;;;;5087816;28;20035;-46
2021/09/17 07:42:29;;;;;;;1.58;1.40;;;20.60;76.90;;;;;;5080102;28;20072;-50
2021/09/17 07:44:55;;;;;;;1.70;1.48;;;20.60;77.60;;;;;;5080189;28;20118;-44
2021/09/17 07:47:20;;;;;;;2.25;1.73;;;20.60;76.90;;;;;;5091237;28;20488;-47
2021/09/17 07:49:46;;;;;;;1.52;1.42;;;20.60;76.90;;;;;;5089913;28;20052;-44
2021/09/17 07:52:12;;;;;;;1.30;1.20;;;20.60;76.90;;;;;;5089026;28;20063;-46
2021/09/17 07:54:38;;;;;;;2.10;1.50;;;20.60;76.90;;;;;;5091267;28;20143;-47
2021/09/17 07:57:04;;;;;;;1.35;1.23;;;20.60;77.00;;;;;;5090713;28;20097;-44
2021/09/17 07:59:30;;;;;;;1.48;1.38;;;20.60;76.90;;;;;;5089949;28;20400;-49
2021/09/17 08:01:56;;;;;;;1.48;1.38;;;20.60;76.90;;;;;;5091093;28;20032;-47
2021/09/17 08:04:22;;;;;;;1.50;1.40;;;20.60;76.90;;;;;;5092230;28;20048;-43
2021/09/17 08:06:48;;;;;;;1.33;1.20;;;20.60;76.90;;;;;;5093405;28;20040;-46
2021/09/17 08:09:13;;;;;;;1.48;1.38;;;20.60;76.90;;;;;;5095073;28;20040;-47
2021/09/17 08:11:40;;;;;;;1.63;1.52;;;20.60;77.00;;;;;;5095213;28;20197;-49
2021/09/17 08:14:06;;;;;;;1.52;1.35;;;20.60;76.90;;;;;;5093827;28;20199;-46
2021/09/17 08:16:32;;;;;;;1.40;1.30;;;20.60;76.90;;;;;;5094065;28;20059;-52
2021/09/17 08:18:58;;;;;;;1.40;1.30;;;20.60;76.90;;;;;;5094721;28;20031;-50
2021/09/17 08:21:24;;;;;;;1.38;1.27;;;20.60;77.00;;;;;;5094130;28;20043;-47
2021/09/17 08:23:50;;;;;;;1.50;1.30;;;20.60;77.00;;;;;;5094124;28;20039;-48
2021/09/17 08:26:18;;;;;;;2.00;1.33;;;20.60;76.90;;;;;;5094671;28;20445;-50
2021/09/17 08:28:44;;;;;;;1.83;1.40;;;20.60;76.90;;;;;;5095687;28;20047;-54
2021/09/17 08:31:10;;;;;;;1.85;1.60;;;20.60;77.00;;;;;;5095042;28;20048;-46
2021/09/17 08:33:36;;;;;;;2.03;1.45;;;20.60;76.90;;;;;;5095246;28;20097;-46
2021/09/17 08:36:02;;;;;;;1.48;1.38;;;20.60;77.00;;;;;;5077051;28;20090;-49
2021/09/17 08:38:29;;;;;;;2.35;1.30;;;20.60;76.90;;;;;;5095419;28;20040;-49
2021/09/17 08:40:57;;;;;;;6.20;4.55;;;20.60;76.90;;;;;;5095184;28;20373;-51
2021/09/17 08:43:25;;;;;;;4.00;2.60;;;20.60;76.80;;;;;;5095283;28;20044;-47
2021/09/17 08:45:51;;;;;;;2.45;2.00;;;20.60;76.70;;;;;;5094703;28;20353;-50
2021/09/17 08:48:17;;;;;;;3.40;2.20;;;20.60;76.80;;;;;;5095040;28;20040;-50
2021/09/17 08:50:48;;;;;;;3.65;2.75;;;20.60;76.60;;;;;;5095043;28;20040;-56
2021/09/17 08:53:17;;;;;;;2.50;2.13;;;20.60;76.80;;;;;;5095270;28;20100;-53
2021/09/17 08:55:47;;;;;;;3.20;2.35;;;20.60;76.90;;;;;;5094935;28;20044;-51
2021/09/17 08:58:12;;;;;;;2.90;2.42;;;20.60;76.90;;;;;;5094690;28;20115;-56
2021/09/17 09:00:40;;;;;;;2.97;2.53;;;20.60;76.90;;;;;;5095118;28;20174;-53
2021/09/17 09:03:08;;;;;;;2.60;2.33;;;20.60;77.00;;;;;;5094422;28;20126;-50
2021/09/17 09:05:36;;;;;;;6.00;3.03;;;20.60;77.10;;;;;;5094919;28;20057;-50
2021/09/17 09:08:03;;;;;;;5.28;3.20;;;20.60;76.60;;;;;;5094123;28;20047;-48
2021/09/17 09:10:30;;;;;;;4.38;2.90;;;20.60;76.50;;;;;;5093722;28;20052;-54
2021/09/17 09:13:06;;;;;;;5.38;2.60;;;20.50;76.60;;;;;;5094372;28;20119;-47
2021/09/17 09:15:35;;;;;;;5.80;2.72;;;20.60;76.70;;;;;;5093414;28;20043;-48
2021/09/17 09:18:13;;;;;;;3.50;2.78;;;20.60;76.70;;;;;;5086152;28;20074;-48
2021/09/17 09:20:39;;;;;;;3.45;3.00;;;20.60;76.80;;;;;;5091318;28;20046;-49
2021/09/17 09:23:16;;;;;;;2.83;2.47;;;20.60;76.70;;;;;;5093708;28;20526;-56
2021/09/17 09:25:59;;;;;;;3.50;2.40;;;20.60;76.70;;;;;;5078886;28;20044;-54
2021/09/17 09:28:37;;;;;;;3.65;2.38;;;20.50;76.70;;;;;;5093697;28;20039;-42
2021/09/17 09:31:09;;;;;;;2.92;1.95;;;20.60;76.80;;;;;;5093648;28;20054;-48
2021/09/17 09:33:39;;;;;;;4.32;2.58;;;20.50;76.70;;;;;;5089458;28;20101;-53
2021/09/17 09:36:09;;;;;;;3.47;2.25;;;20.50;76.80;;;;;;5093112;28;20047;-52
2021/09/17 09:38:47;;;;;;;2.92;2.50;;;20.50;76.80;;;;;;5090012;28;20488;-47
2021/09/17 09:41:21;;;;;;;2.38;2.00;;;20.50;76.90;;;;;;5092081;28;20043;-49
2021/09/17 09:44:17;;;;;;;2.85;2.25;;;20.60;77.00;;;;;;5091550;28;20404;-47
2021/09/17 09:46:43;;;;;;;2.00;1.75;;;20.60;77.00;;;;;;5090680;28;20051;-45
2021/09/17 09:49:25;;;;;;;3.13;2.50;;;20.50;76.90;;;;;;5090114;28;20039;-48
2021/09/17 09:51:55;;;;;;;2.60;2.00;;;20.50;76.90;;;;;;5091571;28;20052;-42
2021/09/17 09:54:23;;;;;;;2.90;2.10;;;20.60;77.00;;;;;;5090498;28;20115;-41
2021/09/17 09:56:51;;;;;;;2.60;1.83;;;20.50;77.00;;;;;;5092799;28;20036;-43
2021/09/17 09:59:22;;;;;;;2.47;1.98;;;20.60;77.10;;;;;;5093098;28;20039;-42
2021/09/17 10:01:48;;;;;;;2.90;2.00;;;20.60;77.10;;;;;;5092754;28;20040;-47
2021/09/17 10:04:16;;;;;;;2.10;1.90;;;20.60;77.10;;;;;;5091721;28;20384;-54
2021/09/17 10:06:43;;;;;;;1.92;1.80;;;20.60;77.10;;;;;;5089982;28;20040;-48
2021/09/17 10:09:11;;;;;;;1.88;1.63;;;20.60;77.20;;;;;;5092891;28;20119;-47
2021/09/17 10:11:38;;;;;;;2.45;1.65;;;20.60;77.20;;;;;;5091386;28;20047;-48
2021/09/17 10:14:10;;;;;;;2.22;1.77;;;20.50;77.10;;;;;;5092650;28;20525;-50
2021/09/17 10:16:36;;;;;;;2.28;2.08;;;20.60;77.20;;;;;;5091923;28;20072;-53
2021/09/17 10:19:02;;;;;;;1.95;1.67;;;20.60;77.20;;;;;;5091957;28;20040;-48
2021/09/17 10:21:49;;;;;;;1.70;1.60;;;20.60;77.20;;;;;;5091649;28;20051;-44
2021/09/17 10:24:27;;;;;;;1.90;1.50;;;20.60;77.30;;;;;;5091614;28;20040;-46
2021/09/17 10:27:20;;;;;;;1.65;1.42;;;20.60;77.30;;;;;;5089537;28;20040;-49
2021/09/17 10:30:08;;;;;;;1.73;1.63;;;20.60;77.40;;;;;;5091358;28;20047;-49
2021/09/17 10:32:35;;;;;;;1.63;1.52;;;20.60;77.40;;;;;;5089213;28;20043;-48
2021/09/17 10:35:15;;;;;;;1.67;1.58;;;20.60;77.30;;;;;;5091786;28;20506;-56
2021/09/17 10:38:02;;;;;;;1.92;1.65;;;20.60;77.30;;;;;;5090323;28;20044;-49
2021/09/17 10:40:43;;;;;;;1.48;1.38;;;20.60;77.40;;;;;;5090918;28;20040;-51
2021/09/17 10:43:09;;;;;;;1.63;1.52;;;20.60;77.40;;;;;;5091967;28;20042;-48
2021/09/17 10:45:38;;;;;;;1.50;1.30;;;20.60;77.40;;;;;;5092042;28;20048;-48
2021/09/17 10:48:04;;;;;;;1.67;1.50;;;20.60;77.70;;;;;;5091315;28;20472;-51
2021/09/17 10:50:50;;;;;;;1.50;1.40;;;20.60;77.40;;;;;;5091827;28;20503;-58
2021/09/17 10:53:34;;;;;;;;;;;20.60;77.40;;;;;;5092452;28;20044;-44
2021/09/17 10:56:03;;;;;;;2.08;1.48;;;20.60;77.80;;;;;;5091644;28;20019;-47
2021/09/17 10:58:33;;;;;;;2.00;1.17;;;20.60;77.50;;;;;;5092893;28;20118;-51
2021/09/17 11:01:04;;;;;;;1.40;1.20;;;20.60;77.50;;;;;;5092685;28;20093;-48
2021/09/17 11:03:39;;;;;;;1.58;1.20;;;20.60;77.50;;;;;;5091857;28;20555;-48
2021/09/17 11:06:52;;;;;;;1.35;1.25;;;20.60;77.50;;;;;;5092851;28;20093;-50
2021/09/17 11:09:11;;;;;;;1.23;1.13;;;20.60;77.50;;;;;;5090438;28;20052;-46
2021/09/17 11:11:45;;;;;;;1.27;1.13;;;20.60;77.50;;;;;;5092439;28;20067;-57
2021/09/17 11:14:21;;;;;;;1.50;1.40;;;20.60;77.50;;;;;;5091093;28;20145;-50
2021/09/17 11:16:49;;;;;;;1.05;1.00;;;20.60;77.50;;;;;;5091736;28;20040;-50
2021/09/17 11:19:20;;;;;;;1.38;1.20;;;20.60;77.50;;;;;;5091121;28;20044;-46
2021/09/17 11:21:50;;;;;;;1.83;1.30;;;20.60;77.50;;;;;;5092204;28;20116;-47
2021/09/17 11:24:22;;;;;;;2.55;1.40;;;20.60;77.50;;;;;;5091272;28;20040;-48
2021/09/17 11:26:50;;;;;;;2.33;1.42;;;20.60;77.50;;;;;;5090954;28;20123;-49
2021/09/17 11:29:22;;;;;;;1.30;1.20;;;20.60;77.50;;;;;;5083967;28;20040;-55
2021/09/17 11:31:53;;;;;;;1.40;1.30;;;20.60;77.40;;;;;;5072274;28;20036;-51
2021/09/17 11:34:21;;;;;;;1.30;1.20;;;20.60;77.50;;;;;;5072015;28;20476;-47
2021/09/17 11:36:54;;;;;;;1.45;1.35;;;20.60;77.50;;;;;;5069667;28;20056;-48
2021/09/17 11:39:42;;;;;;;1.25;1.15;;;20.70;77.50;;;;;;5073788;28;20044;-48
2021/09/17 11:42:09;;;;;;;1.30;1.20;;;20.60;77.40;;;;;;5075560;28;20059;-48
2021/09/17 11:44:44;;;;;;;1.45;1.17;;;20.60;77.50;;;;;;5076025;28;20528;-46
2021/09/17 11:47:19;;;;;;;2.35;0.90;;;20.60;77.40;;;;;;5075906;28;20522;-47
2021/09/17 11:49:45;;;;;;;1.00;0.90;;;20.60;77.50;;;;;;5075200;28;20485;-45
2021/09/17 11:52:19;;;;;;;1.10;1.00;;;20.60;77.50;;;;;;5089265;28;20040;-50
2021/09/17 11:55:05;;;;;;;1.13;1.02;;;20.60;77.50;;;;;;5095922;28;20124;-50
2021/09/17 11:57:35;;;;;;;1.58;1.08;;;20.60;77.50;;;;;;5095547;28;20047;-48
2021/09/17 12:00:16;;;;;;;1.15;1.05;;;20.60;77.50;;;;;;5095320;28;20066;-48
2021/09/17 12:02:43;;;;;;;1.35;1.17;;;20.70;77.50;;;;;;5095837;28;20044;-48
2021/09/17 12:05:14;;;;;;;1.40;1.13;;;20.60;77.50;;;;;;5095656;28;20075;-49
2021/09/17 12:07:41;;;;;;;1.02;1.00;;;20.70;77.50;;;;;;5096414;28;20405;-45
2021/09/17 12:10:12;;;;;;;1.35;1.23;;;20.60;77.50;;;;;;5095410;28;20043;-54
2021/09/17 12:12:41;;;;;;;1.30;1.20;;;20.60;77.50;;;;;;5095642;28;20044;-47
2021/09/17 12:15:07;;;;;;;1.27;1.08;;;20.70;77.50;;;;;;5096525;28;20044;-48
2021/09/17 12:17:34;;;;;;;1.23;1.10;;;20.60;77.50;;;;;;5094738;28;20142;-47
2021/09/17 12:20:01;;;;;;;1.38;1.23;;;20.70;77.50;;;;;;5093668;28;20040;-48
2021/09/17 12:22:39;;;;;;;1.58;0.88;;;20.70;77.50;;;;;;5096112;28;20040;-48
2021/09/17 12:25:10;;;;;;;1.35;1.20;;;20.70;77.50;;;;;;5095936;28;20043;-49
2021/09/17 12:27:41;;;;;;;1.40;1.02;;;20.70;77.50;;;;;;5094615;28;20127;-48
2021/09/17 12:30:11;;;;;;;1.15;1.08;;;20.70;77.50;;;;;;5095924;28;20119;-48
2021/09/17 12:32:38;;;;;;;0.90;0.90;;;20.70;77.50;;;;;;5095739;28;20044;-55
2021/09/17 12:35:08;;;;;;;1.17;1.00;;;20.70;77.60;;;;;;5094949;28;20361;-54
2021/09/17 12:37:34;;;;;;;1.00;0.90;;;20.70;77.50;;;;;;5095510;28;20048;-48
2021/09/17 12:40:14;;;;;;;1.20;1.10;;;20.70;77.50;;;;;;5095478;28;20046;-53
2021/09/17 12:42:42;;;;;;;1.00;0.90;;;20.70;77.50;;;;;;5089988;28;20036;-49
2021/09/17 12:45:08;;;;;;;0.95;0.90;;;20.70;77.50;;;;;;5082132;28;20044;-57
2021/09/17 12:47:35;;;;;;;1.15;1.05;;;20.70;77.50;;;;;;5080574;28;20044;-51
2021/09/17 12:50:12;;;;;;;1.25;1.15;;;20.70;77.50;;;;;;5086409;28;20341;-53
2021/09/17 12:52:42;;;;;;;1.15;1.05;;;20.70;77.50;;;;;;5074604;28;20048;-55